Patara — DHEK2 — position and weather

sailwx.info

Track history (hours):
 
Tides and Currents Weather Stations Pressure Air Temp Water Temp Dewpoint Dewpoint Depression Visibility Wind Speed Wind Dir Waves Ship Positions

Patara

Last reported at 2018-Jan-20 16:58 UTC. Time now 2018-Jan-20 17:14 UTC.
Position N 53°21' W 006°13'.

Length 182 m; draft 8.3 m.

Type: Cargo ship. MMSI: 218818000.

Date/timePositionNaut miles runAvg speedWind from/ knotsBaromVisibWave heightAir tempDewpointWater temp
2018-Jan-20 16:58N 53°21' W 006°13'0 0.0
2018-Jan-20 16:28N 53°21' W 006°13'0 0.0
2018-Jan-20 15:58N 53°21' W 006°13'0 0.0
2018-Jan-20 15:30N 53°21' W 006°13'0 0.0
2018-Jan-20 15:00N 53°21' W 006°13'0 0.0
2018-Jan-20 14:15N 53°21' W 006°13'0 0.0
2018-Jan-20 14:00N 53°21' W 006°13'0 0.0
2018-Jan-20 13:30N 53°21' W 006°13'0 0.0
2018-Jan-20 12:56N 53°21' W 006°13'0 0.0
2018-Jan-20 12:30N 53°21' W 006°13'0 0.0
2018-Jan-20 12:00N 53°21' W 006°13'0 0.0
2018-Jan-20 11:13N 53°21' W 006°13'0 0.0
2018-Jan-20 10:51N 53°21' W 006°13'0 0.0
2018-Jan-20 10:25N 53°21' W 006°13'0 0.0
2018-Jan-20 10:00N 53°21' W 006°13'0 0.0
2018-Jan-20 09:22N 53°21' W 006°13'0 0.0
2018-Jan-20 08:57N 53°21' W 006°13'0 0.0
2018-Jan-20 08:30N 53°21' W 006°13'0 0.0
2018-Jan-20 08:00N 53°21' W 006°13'0 0.0
2018-Jan-20 07:30N 53°21' W 006°13'0 0.0
2018-Jan-20 07:00N 53°21' W 006°13'0 0.0
2018-Jan-20 06:29N 53°21' W 006°13'0 0.0
2018-Jan-20 05:58N 53°21' W 006°13'0 0.0
2018-Jan-20 05:28N 53°21' W 006°13'0 0.0
2018-Jan-20 04:58N 53°21' W 006°13'0 0.0
2018-Jan-20 04:28N 53°21' W 006°13'0 0.0
2018-Jan-20 03:58N 53°21' W 006°13'0 0.0
2018-Jan-20 03:26N 53°21' W 006°13'0 0.0
2018-Jan-20 02:54N 53°21' W 006°13'0 0.0
2018-Jan-20 02:21N 53°21' W 006°13'0 0.0
2018-Jan-20 01:58N 53°21' W 006°13'0 0.0
2018-Jan-20 01:22N 53°21' W 006°13'0 0.0
2018-Jan-20 01:00N 53°21' W 006°13'0 0.0
2018-Jan-20 00:28N 53°21' W 006°13'0 0.0
2018-Jan-20 00:00N 53°21' W 006°13'0 0.0
2018-Jan-19 23:30N 53°21' W 006°13'0 0.0
2018-Jan-19 22:59N 53°21' W 006°13'0 0.0
2018-Jan-19 22:29N 53°21' W 006°13'0 0.0
2018-Jan-19 18:32N 53°21' W 006°13'0 0.0
2018-Jan-19 18:29N 53°21' W 006°13'0 0.0
2018-Jan-19 17:58N 53°21' W 006°13'0 0.0
2018-Jan-19 17:27N 53°21' W 006°13'0 0.0
2018-Jan-19 17:00N 53°21' W 006°13'0 0.1
2018-Jan-19 16:25N 53°21' W 006°13'2 4.1
2018-Jan-19 16:00N 53°21' W 006°10'4 7.6
2018-Jan-19 15:30N 53°20' W 006°04'3 5.5
2018-Jan-19 14:57N 53°21' W 005°59'2 4.9
2018-Jan-19 14:29N 53°19' W 005°55'2710.9
2018-Jan-19 12:00N 53°42' W 005°30'5844.1 240 / 301007.5 5.4 9.1 2.911.3
2018-Jan-19 10:40N 52°44' W 005°36'316.6
2018-Jan-19 10:29N 52°41' W 005°36'816.6
2018-Jan-19 10:00N 52°33' W 005°38'816.5
2018-Jan-19 09:30N 52°25' W 005°39'816.5
2018-Jan-19 09:00N 52°16' W 005°40'5317.5
2018-Jan-19 06:00N 51°24' W 005°48'16 9.2 290 / 381008.7 5.4 7.6 1.212.0
2018-Jan-19 04:15N 51°08' W 005°53'514.8
2018-Jan-19 03:54N 51°03' W 005°53'614.9
2018-Jan-19 03:30N 50°57' W 005°53'714.6
2018-Jan-19 03:00N 50°50' W 005°53'714.7
2018-Jan-19 02:31N 50°43' W 005°53'815.0
2018-Jan-19 02:00N 50°35' W 005°54'714.9
2018-Jan-19 01:30N 50°28' W 005°54'914.7
2018-Jan-19 00:53N 50°18' W 005°54'615.3
2018-Jan-19 00:30N 50°13' W 005°54'815.4
2018-Jan-19 00:00N 50°05' W 005°54'1813.4
2018-Jan-18 22:40N 49°49' W 005°41'1212.3
2018-Jan-18 21:40N 49°47' W 005°22'1 9.4
2018-Jan-18 21:30N 49°47' W 005°20'5 9.0
2018-Jan-18 21:00N 49°47' W 005°13'5 9.0
2018-Jan-18 20:29N 49°47' W 005°06'610.1
2018-Jan-18 19:56N 49°47' W 004°57'613.7
2018-Jan-18 19:30N 49°48' W 004°48'814.1
2018-Jan-18 18:58N 49°49' W 004°37'613.7
2018-Jan-18 18:30N 49°50' W 004°27'1019.1
2018-Jan-18 18:00N 49°48' W 004°12'319.1 290 / 331008.7 5.4 9.7 3.413.0
2018-Jan-18 17:49N 49°51' W 004°12'413.5
2018-Jan-18 17:30N 49°52' W 004°06'713.9
2018-Jan-18 17:00N 49°53' W 003°55'714.0
2018-Jan-18 16:30N 49°54' W 003°45'714.4
2018-Jan-18 16:00N 49°55' W 003°33'714.5
2018-Jan-18 15:30N 49°56' W 003°22'915.2
2018-Jan-18 14:57N 49°57' W 003°09'716.0
2018-Jan-18 14:30N 49°58' W 002°58'816.5
2018-Jan-18 14:00N 50°00' W 002°46'916.5
2018-Jan-18 13:28N 50°02' W 002°33'4714.7
2018-Jan-18 10:16N 50°17' W 001°22'611.1
2018-Jan-18 09:46N 50°19' W 001°14'3 9.8
2018-Jan-18 09:25N 50°20' W 001°09'5 9.1
2018-Jan-18 08:54N 50°22' W 001°03'3 7.8
2018-Jan-18 08:30N 50°22' W 000°58'8 5.0
2018-Jan-18 06:59N 50°20' W 000°46'7 5.0
2018-Jan-18 05:30N 50°22' W 000°36'5 9.5
2018-Jan-18 05:00N 50°25' W 000°29'510.9
2018-Jan-18 04:31N 50°25' W 000°21'611.3
2018-Jan-18 04:01N 50°27' W 000°12'611.8
2018-Jan-18 03:31N 50°29' W 000°04'612.7
2018-Jan-18 03:01N 50°30' E 000°06'612.8
2018-Jan-18 02:31N 50°32' E 000°16'613.0
2018-Jan-18 02:01N 50°34' E 000°26'612.9
2018-Jan-18 01:31N 50°36' E 000°35'612.5
2018-Jan-18 01:01N 50°39' E 000°44'1312.5
2018-Jan-18 00:00N 50°46' E 000°60'112.8
2018-Jan-17 23:57N 50°47' E 001°00'  
2018-Jan-14 12:00N 53°06' E 004°30'   110 / 251021.0 2.2 5.0-0.2 7.0
2018-Jan-12 06:00N 44°36' W 008°42'10717.9 190 / 151024.4 5.4 13.2 7.215.0
2018-Jan-12 00:00N 43°00' W 009°48'18615.5 190 / 101028.4 5.4 14.5 5.015.6
2018-Jan-11 12:00N 39°54' W 009°48'1912.0 330 / 211029.1 5.4 18.0 8.816.8
2018-Jan-11 10:22N 39°35' W 009°52'614.8
2018-Jan-11 09:59N 39°29' W 009°52'714.4
2018-Jan-11 09:30N 39°22' W 009°52'714.8
2018-Jan-11 09:00N 39°15' W 009°52'714.6
2018-Jan-11 08:30N 39°08' W 009°52'714.0
2018-Jan-11 08:00N 39°01' W 009°51'714.0
2018-Jan-11 07:30N 38°54' W 009°50'713.9
2018-Jan-11 07:00N 38°47' W 009°50'713.8
2018-Jan-11 06:30N 38°40' W 009°49'612.6
2018-Jan-11 06:00N 38°35' W 009°45'612.9
2018-Jan-11 05:30N 38°31' W 009°38'612.6
2018-Jan-11 05:00N 38°27' W 009°32'612.4
2018-Jan-11 04:31N 38°23' W 009°26'612.4
2018-Jan-11 04:00N 38°20' W 009°19'713.5
2018-Jan-11 03:30N 38°20' W 009°10'815.0
2018-Jan-11 03:00N 38°24' W 009°02'713.1
2018-Jan-11 02:30N 38°29' W 008°56'3 6.9
2018-Jan-11 02:00N 38°31' W 008°52'0 0.2
2018-Jan-11 01:30N 38°31' W 008°52'0 0.0
2018-Jan-11 01:00N 38°31' W 008°52'0 0.0
2018-Jan-11 00:26N 38°31' W 008°52'0 0.0
2018-Jan-10 23:59N 38°31' W 008°52'0 0.0
2018-Jan-10 23:30N 38°31' W 008°52'0 0.0
2018-Jan-10 23:00N 38°31' W 008°52'0 0.0
2018-Jan-10 22:30N 38°31' W 008°52'0 0.0
2018-Jan-10 21:59N 38°31' W 008°52'0 0.0
2018-Jan-10 21:28N 38°31' W 008°52'0 0.0
2018-Jan-10 21:00N 38°31' W 008°52'0 0.0
2018-Jan-10 20:30N 38°31' W 008°52'0 0.0
2018-Jan-10 20:00N 38°31' W 008°52'0 0.0
2018-Jan-10 19:30N 38°31' W 008°52'0 0.0
2018-Jan-10 18:58N 38°31' W 008°52'0 0.0
2018-Jan-10 18:28N 38°31' W 008°52'0 0.0
2018-Jan-10 17:55N 38°31' W 008°52'0 0.0
2018-Jan-10 17:29N 38°31' W 008°52'0 0.0
2018-Jan-10 17:00N 38°31' W 008°52'  
Track history (hours):
 
Tides and Currents Weather Stations Pressure Air Temp Water Temp Dewpoint Dewpoint Depression Visibility Wind Speed Wind Dir Waves Ship Positions

Patara

Last reported at 2018-Jan-20 16:58 UTC. Time now 2018-Jan-20 17:14 UTC.
Position N 53°21' W 006°13'.

Length 182 m; draft 8.3 m.

Type: Cargo ship. MMSI: 218818000.

Date/timePositionNaut miles runAvg speedWind from/ knotsBaromVisibWave heightAir tempDewpointWater temp
2018-Jan-20 16:58N 53°21' W 006°13'0 0.0
2018-Jan-20 16:28N 53°21' W 006°13'0 0.0
2018-Jan-20 15:58N 53°21' W 006°13'0 0.0
2018-Jan-20 15:30N 53°21' W 006°13'0 0.0
2018-Jan-20 15:00N 53°21' W 006°13'0 0.0
2018-Jan-20 14:15N 53°21' W 006°13'0 0.0
2018-Jan-20 14:00N 53°21' W 006°13'0 0.0
2018-Jan-20 13:30N 53°21' W 006°13'0 0.0
2018-Jan-20 12:56N 53°21' W 006°13'0 0.0
2018-Jan-20 12:30N 53°21' W 006°13'0 0.0
2018-Jan-20 12:00N 53°21' W 006°13'0 0.0
2018-Jan-20 11:13N 53°21' W 006°13'0 0.0
2018-Jan-20 10:51N 53°21' W 006°13'0 0.0
2018-Jan-20 10:25N 53°21' W 006°13'0 0.0
2018-Jan-20 10:00N 53°21' W 006°13'0 0.0
2018-Jan-20 09:22N 53°21' W 006°13'0 0.0
2018-Jan-20 08:57N 53°21' W 006°13'0 0.0
2018-Jan-20 08:30N 53°21' W 006°13'0 0.0
2018-Jan-20 08:00N 53°21' W 006°13'0 0.0
2018-Jan-20 07:30N 53°21' W 006°13'0 0.0
2018-Jan-20 07:00N 53°21' W 006°13'0 0.0
2018-Jan-20 06:29N 53°21' W 006°13'0 0.0
2018-Jan-20 05:58N 53°21' W 006°13'0 0.0
2018-Jan-20 05:28N 53°21' W 006°13'0 0.0
2018-Jan-20 04:58N 53°21' W 006°13'0 0.0
2018-Jan-20 04:28N 53°21' W 006°13'0 0.0
2018-Jan-20 03:58N 53°21' W 006°13'0 0.0
2018-Jan-20 03:26N 53°21' W 006°13'0 0.0
2018-Jan-20 02:54N 53°21' W 006°13'0 0.0
2018-Jan-20 02:21N 53°21' W 006°13'0 0.0
2018-Jan-20 01:58N 53°21' W 006°13'0 0.0
2018-Jan-20 01:22N 53°21' W 006°13'0 0.0
2018-Jan-20 01:00N 53°21' W 006°13'0 0.0
2018-Jan-20 00:28N 53°21' W 006°13'0 0.0
2018-Jan-20 00:00N 53°21' W 006°13'0 0.0
2018-Jan-19 23:30N 53°21' W 006°13'0 0.0
2018-Jan-19 22:59N 53°21' W 006°13'0 0.0
2018-Jan-19 22:29N 53°21' W 006°13'0 0.0
2018-Jan-19 18:32N 53°21' W 006°13'0 0.0
2018-Jan-19 18:29N 53°21' W 006°13'0 0.0
2018-Jan-19 17:58N 53°21' W 006°13'0 0.0
2018-Jan-19 17:27N 53°21' W 006°13'0 0.0
2018-Jan-19 17:00N 53°21' W 006°13'0 0.1
2018-Jan-19 16:25N 53°21' W 006°13'2 4.1
2018-Jan-19 16:00N 53°21' W 006°10'4 7.6
2018-Jan-19 15:30N 53°20' W 006°04'3 5.5
2018-Jan-19 14:57N 53°21' W 005°59'2 4.9
2018-Jan-19 14:29N 53°19' W 005°55'2710.9
2018-Jan-19 12:00N 53°42' W 005°30'5844.1 240 / 301007.5 5.4 9.1 2.911.3
2018-Jan-19 10:40N 52°44' W 005°36'316.6
2018-Jan-19 10:29N 52°41' W 005°36'816.6
2018-Jan-19 10:00N 52°33' W 005°38'816.5
2018-Jan-19 09:30N 52°25' W 005°39'816.5
2018-Jan-19 09:00N 52°16' W 005°40'5317.5
2018-Jan-19 06:00N 51°24' W 005°48'16 9.2 290 / 381008.7 5.4 7.6 1.212.0
2018-Jan-19 04:15N 51°08' W 005°53'514.8
2018-Jan-19 03:54N 51°03' W 005°53'614.9
2018-Jan-19 03:30N 50°57' W 005°53'714.6
2018-Jan-19 03:00N 50°50' W 005°53'714.7
2018-Jan-19 02:31N 50°43' W 005°53'815.0
2018-Jan-19 02:00N 50°35' W 005°54'714.9
2018-Jan-19 01:30N 50°28' W 005°54'914.7
2018-Jan-19 00:53N 50°18' W 005°54'615.3
2018-Jan-19 00:30N 50°13' W 005°54'815.4
2018-Jan-19 00:00N 50°05' W 005°54'1813.4
2018-Jan-18 22:40N 49°49' W 005°41'1212.3
2018-Jan-18 21:40N 49°47' W 005°22'1 9.4
2018-Jan-18 21:30N 49°47' W 005°20'5 9.0
2018-Jan-18 21:00N 49°47' W 005°13'5 9.0
2018-Jan-18 20:29N 49°47' W 005°06'610.1
2018-Jan-18 19:56N 49°47' W 004°57'613.7
2018-Jan-18 19:30N 49°48' W 004°48'814.1
2018-Jan-18 18:58N 49°49' W 004°37'613.7
2018-Jan-18 18:30N 49°50' W 004°27'1019.1
2018-Jan-18 18:00N 49°48' W 004°12'319.1 290 / 331008.7 5.4 9.7 3.413.0
2018-Jan-18 17:49N 49°51' W 004°12'413.5
2018-Jan-18 17:30N 49°52' W 004°06'713.9
2018-Jan-18 17:00N 49°53' W 003°55'714.0
2018-Jan-18 16:30N 49°54' W 003°45'714.4
2018-Jan-18 16:00N 49°55' W 003°33'714.5
2018-Jan-18 15:30N 49°56' W 003°22'915.2
2018-Jan-18 14:57N 49°57' W 003°09'716.0
2018-Jan-18 14:30N 49°58' W 002°58'816.5
2018-Jan-18 14:00N 50°00' W 002°46'916.5
2018-Jan-18 13:28N 50°02' W 002°33'4714.7
2018-Jan-18 10:16N 50°17' W 001°22'611.1
2018-Jan-18 09:46N 50°19' W 001°14'3 9.8
2018-Jan-18 09:25N 50°20' W 001°09'5 9.1
2018-Jan-18 08:54N 50°22' W 001°03'3 7.8
2018-Jan-18 08:30N 50°22' W 000°58'8 5.0
2018-Jan-18 06:59N 50°20' W 000°46'7 5.0
2018-Jan-18 05:30N 50°22' W 000°36'5 9.5
2018-Jan-18 05:00N 50°25' W 000°29'510.9
2018-Jan-18 04:31N 50°25' W 000°21'611.3
2018-Jan-18 04:01N 50°27' W 000°12'611.8
2018-Jan-18 03:31N 50°29' W 000°04'612.7
2018-Jan-18 03:01N 50°30' E 000°06'612.8
2018-Jan-18 02:31N 50°32' E 000°16'613.0
2018-Jan-18 02:01N 50°34' E 000°26'612.9
2018-Jan-18 01:31N 50°36' E 000°35'612.5
2018-Jan-18 01:01N 50°39' E 000°44'1312.5
2018-Jan-18 00:00N 50°46' E 000°60'112.8
2018-Jan-17 23:57N 50°47' E 001°00'  
2018-Jan-14 12:00N 53°06' E 004°30'   110 / 251021.0 2.2 5.0-0.2 7.0
2018-Jan-12 06:00N 44°36' W 008°42'10717.9 190 / 151024.4 5.4 13.2 7.215.0
2018-Jan-12 00:00N 43°00' W 009°48'18615.5 190 / 101028.4 5.4 14.5 5.015.6
2018-Jan-11 12:00N 39°54' W 009°48'1912.0 330 / 211029.1 5.4 18.0 8.816.8
2018-Jan-11 10:22N 39°35' W 009°52'614.8
2018-Jan-11 09:59N 39°29' W 009°52'714.4
2018-Jan-11 09:30N 39°22' W 009°52'714.8
2018-Jan-11 09:00N 39°15' W 009°52'714.6
2018-Jan-11 08:30N 39°08' W 009°52'714.0
2018-Jan-11 08:00N 39°01' W 009°51'714.0
2018-Jan-11 07:30N 38°54' W 009°50'713.9
2018-Jan-11 07:00N 38°47' W 009°50'713.8
2018-Jan-11 06:30N 38°40' W 009°49'612.6
2018-Jan-11 06:00N 38°35' W 009°45'612.9
2018-Jan-11 05:30N 38°31' W 009°38'612.6
2018-Jan-11 05:00N 38°27' W 009°32'612.4
2018-Jan-11 04:31N 38°23' W 009°26'612.4
2018-Jan-11 04:00N 38°20' W 009°19'713.5
2018-Jan-11 03:30N 38°20' W 009°10'815.0
2018-Jan-11 03:00N 38°24' W 009°02'713.1
2018-Jan-11 02:30N 38°29' W 008°56'3 6.9
2018-Jan-11 02:00N 38°31' W 008°52'0 0.2
2018-Jan-11 01:30N 38°31' W 008°52'0 0.0
2018-Jan-11 01:00N 38°31' W 008°52'0 0.0
2018-Jan-11 00:26N 38°31' W 008°52'0 0.0
2018-Jan-10 23:59N 38°31' W 008°52'0 0.0
2018-Jan-10 23:30N 38°31' W 008°52'0 0.0
2018-Jan-10 23:00N 38°31' W 008°52'0 0.0
2018-Jan-10 22:30N 38°31' W 008°52'0 0.0
2018-Jan-10 21:59N 38°31' W 008°52'0 0.0
2018-Jan-10 21:28N 38°31' W 008°52'0 0.0
2018-Jan-10 21:00N 38°31' W 008°52'0 0.0
2018-Jan-10 20:30N 38°31' W 008°52'0 0.0
2018-Jan-10 20:00N 38°31' W 008°52'0 0.0
2018-Jan-10 19:30N 38°31' W 008°52'0 0.0
2018-Jan-10 18:58N 38°31' W 008°52'0 0.0
2018-Jan-10 18:28N 38°31' W 008°52'0 0.0
2018-Jan-10 17:55N 38°31' W 008°52'0 0.0
2018-Jan-10 17:29N 38°31' W 008°52'0 0.0
2018-Jan-10 17:00N 38°31' W 008°52'  

Dump ship's entire track history